Huvudsida
METAR-TAF:

METAR-TAF

Flygplatser :

Vladivostok, Ryssland

latitud: 43-07N, longitud: 131-56E, höjd: 184 m

Aktuellt väderrapport

Denna rapport gjordes för 38 minuter sedan, klockan 09:00 UTC
Vind 12 kt från syd
Temperatur 14°C
Fuktighet 63%
Tryck 1009 hPa
Sikt 10 km eller mer
Få moln på en höjd av 2300 ft

METAR: UHWW 220900Z 19006MPS 9999 FEW023 14/07 Q1009 R25L/0///70 NOSIG RMK QFE755

Tid: 19:38 (09:38 UTC)

Väderprognos

Denna rapport gjordes för 1 timme och 38 minuter sedan, klockan 08:00 UTC
Prognos gäller från 22 kl. 09 UTC till 23 kl. 09 UTC
Vind 14 kt från syd/sydväst
Sikt 10 km eller mer
Brutna moln på en höjd av 1100 ft
Brutna moln på en höjd av 2000 ft, Cumulonimbus.
Temporärt
från 22 kl. 09 UTC till 22 kl. 12 UTC
Vind 23 kt från syd/sydväst
Blir
från 22 kl. 12 UTC till 22 kl. 14 UTC
Vind 6 kt från väst
Sikt: 3100 m
lätta regnskurar, fuktdis

TAF: UHWW 220800Z 2209/2309 21007MPS 9999 BKN011 BKN020CB TEMPO 2209/2212 21012MPS BECMG 2212/2214 26003MPS 3100 -SHRA BR

Aktuella väderrapporter och prognoser från 4000 flygplatser (METAR- och TAF-rapporter).

De tillgängliga stationerna syns som gula och röda prickar på kartan.

För musen över prickarna för att se namnen på stationerna.

Klicka sedan för att få väderrapporter och prognoser.

För att ändra kartan: Klicka på de gröna knapparna med ett svart kors på för att zooma in; den gröna knappen med ett streck på för att zooma ut; eller på de gröna pilarna för angränsande kartor.


METAR-TAF: